createdAt,value
2019-05-07T00:02:24.476Z,61.42
2019-05-07T00:05:14.579Z,60.94
2019-05-07T00:08:04.951Z,60.09
2019-05-07T00:10:58.121Z,59.49
2019-05-07T00:13:48.553Z,59.35
2019-05-07T00:16:38.924Z,58.93
2019-05-07T00:19:29.457Z,60.18
2019-05-07T00:22:19.983Z,59.75
2019-05-07T00:25:12.378Z,60.09
2019-05-07T00:28:02.893Z,59.16
2019-05-07T00:30:53.631Z,60.42
2019-05-07T00:33:45.052Z,60.87
2019-05-07T00:36:43.803Z,61.94
2019-05-07T00:40:02.575Z,63.08
2019-05-07T00:43:08.772Z,63.64
2019-05-07T00:46:02.401Z,63.98
2019-05-07T00:48:52.947Z,64.52
2019-05-07T00:51:43.423Z,64.20
2019-05-07T00:54:33.755Z,64.80
2019-05-07T00:57:24.054Z,64.46
2019-05-07T01:00:14.326Z,64.66
2019-05-07T01:03:05.633Z,64.69
2019-05-07T01:05:56.132Z,64.34
2019-05-07T01:08:46.531Z,63.53
2019-05-07T01:11:36.952Z,62.57
2019-05-07T01:14:28.034Z,62.27
2019-05-07T01:17:18.318Z,61.78
2019-05-07T01:20:08.766Z,62.31
2019-05-07T01:22:59.452Z,63.12
2019-05-07T01:25:52.398Z,63.60
2019-05-07T01:29:02.882Z,62.97
2019-05-07T01:32:22.192Z,63.02
2019-05-07T01:35:22.518Z,62.46
2019-05-07T01:38:12.806Z,62.12
2019-05-07T01:41:03.040Z,62.57
2019-05-07T01:43:53.342Z,61.87
2019-05-07T01:46:43.861Z,62.04
2019-05-07T01:49:34.237Z,61.31
2019-05-07T01:52:24.983Z,61.99
2019-05-07T01:55:15.382Z,61.93
2019-05-07T01:58:05.758Z,62.01
2019-05-07T02:00:56.159Z,62.32
2019-05-07T02:04:08.613Z,62.06
2019-05-07T02:07:34.400Z,62.14
2019-05-07T02:10:33.014Z,60.42
2019-05-07T02:13:23.424Z,59.92
2019-05-07T02:16:13.899Z,60.58
2019-05-07T02:19:05.179Z,60.44
2019-05-07T02:21:55.448Z,60.37
2019-05-07T02:24:45.802Z,60.41
2019-05-07T02:27:36.320Z,60.39
2019-05-07T02:30:26.948Z,60.54
2019-05-07T02:33:17.590Z,61.53
2019-05-07T02:36:08.025Z,62.01
2019-05-07T02:39:05.408Z,62.09
2019-05-07T02:41:56.065Z,62.91
2019-05-07T02:45:14.006Z,62.74
2019-05-07T02:48:05.231Z,62.51
2019-05-07T02:51:04.392Z,62.59
2019-05-07T02:54:13.569Z,62.13
2019-05-07T02:57:03.944Z,61.53
2019-05-07T02:59:54.748Z,61.05
2019-05-07T03:02:45.415Z,61.12
2019-05-07T03:05:36.019Z,61.98
2019-05-07T03:08:27.663Z,62.00
2019-05-07T03:11:18.588Z,62.79
2019-05-07T03:14:08.955Z,62.57
2019-05-07T03:17:02.852Z,62.48
2019-05-07T03:19:53.515Z,61.88
2019-05-07T03:22:44.138Z,62.74
2019-05-07T03:25:54.230Z,62.29
2019-05-07T03:28:54.012Z,63.06
2019-05-07T03:31:57.546Z,63.54
2019-05-07T03:35:06.618Z,62.88
2019-05-07T03:37:55.374Z,62.80
2019-05-07T03:40:45.629Z,62.51
2019-05-07T03:43:36.101Z,63.10
2019-05-07T03:46:26.621Z,62.54
2019-05-07T03:49:34.237Z,62.98
2019-05-07T03:52:24.428Z,62.77
2019-05-07T03:55:15.300Z,62.97
2019-05-07T03:58:05.687Z,62.00
2019-05-07T04:00:56.053Z,61.89
2019-05-07T04:03:46.308Z,61.58
2019-05-07T04:06:36.533Z,57.85
2019-05-07T04:09:27.153Z,48.17
2019-05-07T04:12:17.441Z,42.16
2019-05-07T04:15:08.004Z,44.09
2019-05-07T04:17:58.536Z,48.15
2019-05-07T04:20:48.696Z,47.76
2019-05-07T04:23:39.114Z,44.63
2019-05-07T04:26:36.319Z,38.94
2019-05-07T04:29:26.982Z,36.24
2019-05-07T04:32:19.051Z,39.56
2019-05-07T04:35:29.080Z,42.00
2019-05-07T04:38:19.487Z,44.58
2019-05-07T04:41:10.183Z,39.92
2019-05-07T04:44:03.549Z,33.69
2019-05-07T04:46:53.392Z,29.70
2019-05-07T04:49:44.145Z,27.01
2019-05-07T04:52:36.885Z,25.41
2019-05-07T04:55:28.802Z,27.49
2019-05-07T04:58:23.534Z,32.75
2019-05-07T05:01:16.990Z,33.77
2019-05-07T05:04:25.729Z,29.73
2019-05-07T05:07:06.112Z,25.62
2019-05-07T05:09:56.409Z,24.65
2019-05-07T05:12:47.351Z,23.82
2019-05-07T05:15:38.162Z,22.27
2019-05-07T05:18:29.122Z,21.51
2019-05-07T05:21:27.999Z,21.34
2019-05-07T05:24:25.145Z,21.28
2019-05-07T05:27:15.891Z,21.52
2019-05-07T05:30:08.156Z,21.78
2019-05-07T05:33:01.332Z,21.27
2019-05-07T05:35:52.540Z,20.99
2019-05-07T05:38:43.804Z,21.43
2019-05-07T05:41:39.763Z,20.01
2019-05-07T05:44:33.030Z,21.83
2019-05-07T05:47:23.898Z,20.54
2019-05-07T05:50:15.072Z,19.57
2019-05-07T05:53:15.246Z,19.33
2019-05-07T05:56:12.086Z,18.33
2019-05-07T05:59:32.449Z,18.21
2019-05-07T06:02:38.818Z,18.69
2019-05-07T06:05:48.395Z,18.42
2019-05-07T06:08:48.713Z,18.22
2019-05-07T06:12:13.854Z,17.85
2019-05-07T06:15:23.320Z,18.25
2019-05-07T06:18:33.080Z,18.59
2019-05-07T06:21:42.067Z,18.22
2019-05-07T06:24:56.497Z,18.68
2019-05-07T06:27:47.535Z,18.23
2019-05-07T06:30:38.583Z,17.32
2019-05-07T06:33:29.556Z,16.41
2019-05-07T06:36:22.031Z,16.41
2019-05-07T06:39:18.980Z,16.32
2019-05-07T06:42:36.218Z,15.76
2019-05-07T06:45:35.417Z,15.57
2019-05-07T06:48:37.733Z,15.69
2019-05-07T06:51:18.253Z,14.97
2019-05-07T06:54:12.956Z,15.80
2019-05-07T06:57:03.945Z,16.54
2019-05-07T06:59:59.618Z,16.36
2019-05-07T07:02:56.422Z,15.32
2019-05-07T07:06:03.037Z,15.32
2019-05-07T07:09:01.862Z,15.96
2019-05-07T07:11:58.712Z,15.24
2019-05-07T07:14:51.688Z,15.25
2019-05-07T07:17:42.358Z,15.29
2019-05-07T07:20:33.586Z,14.79
2019-05-07T07:23:24.660Z,16.82
2019-05-07T07:26:15.608Z,19.82
2019-05-07T07:29:07.811Z,21.18
2019-05-07T07:32:02.348Z,23.25
2019-05-07T07:34:54.511Z,23.90
2019-05-07T07:37:45.517Z,24.36
2019-05-07T07:40:44.177Z,26.04
2019-05-07T07:43:34.924Z,25.96
2019-05-07T07:46:25.913Z,27.80
2019-05-07T07:49:19.176Z,26.45
2019-05-07T07:52:09.380Z,28.55
2019-05-07T07:55:02.079Z,29.04
2019-05-07T07:58:05.947Z,31.43
2019-05-07T08:01:08.234Z,31.95
2019-05-07T08:03:58.447Z,33.80
2019-05-07T08:06:52.256Z,35.45
2019-05-07T08:09:43.491Z,36.41
2019-05-07T08:12:35.027Z,37.60
2019-05-07T08:15:25.325Z,39.62
2019-05-07T08:18:15.767Z,39.25
2019-05-07T08:21:08.004Z,40.35
2019-05-07T08:23:58.347Z,39.56
2019-05-07T08:26:48.663Z,39.98
2019-05-07T08:29:39.401Z,38.39
2019-05-07T08:32:43.378Z,37.07
2019-05-07T08:35:46.706Z,37.07
2019-05-07T08:38:52.418Z,37.48
2019-05-07T08:41:42.411Z,36.99
2019-05-07T08:44:40.143Z,36.15
2019-05-07T08:47:42.921Z,36.63
2019-05-07T08:50:33.731Z,38.29
2019-05-07T08:53:24.153Z,37.76
2019-05-07T08:56:14.504Z,38.04
2019-05-07T08:59:05.048Z,34.88
2019-05-07T09:01:55.410Z,34.88
2019-05-07T09:04:45.848Z,30.57
2019-05-07T09:07:36.263Z,27.66
2019-05-07T09:10:26.969Z,28.87
2019-05-07T09:13:17.389Z,30.67
2019-05-07T09:16:07.985Z,32.59
2019-05-07T09:18:58.407Z,32.87
2019-05-07T09:21:48.491Z,33.19
2019-05-07T09:24:38.869Z,34.46
2019-05-07T09:27:34.968Z,35.17
2019-05-07T09:30:46.864Z,35.43
2019-05-07T09:33:48.688Z,34.78
2019-05-07T09:36:45.916Z,35.31
2019-05-07T09:39:36.414Z,35.84
2019-05-07T09:42:26.611Z,36.60
2019-05-07T09:45:17.611Z,38.36
2019-05-07T09:48:07.772Z,37.12
2019-05-07T09:50:58.879Z,35.36
2019-05-07T09:53:49.147Z,35.36
2019-05-07T09:56:39.379Z,34.91
2019-05-07T09:59:32.515Z,34.71
2019-05-07T10:02:22.889Z,34.71
2019-05-07T10:05:14.291Z,34.54
2019-05-07T10:08:04.858Z,33.45
2019-05-07T10:10:55.276Z,33.03
2019-05-07T10:13:52.415Z,33.46
2019-05-07T10:16:52.303Z,32.46
2019-05-07T10:19:41.821Z,32.54
2019-05-07T10:22:32.299Z,32.99
2019-05-07T10:25:23.060Z,32.99
2019-05-07T10:28:13.222Z,33.65
2019-05-07T10:31:03.669Z,33.74
2019-05-07T10:33:54.154Z,35.20
2019-05-07T10:36:44.342Z,35.37
2019-05-07T10:39:34.819Z,34.06
2019-05-07T10:42:25.196Z,34.62
2019-05-07T10:45:28.060Z,32.32
2019-05-07T10:48:24.779Z,32.84
2019-05-07T10:51:15.189Z,33.29
2019-05-07T10:54:05.484Z,32.40
2019-05-07T10:56:56.020Z,32.40
2019-05-07T10:59:47.151Z,33.05
2019-05-07T11:02:39.323Z,33.05
2019-05-07T11:05:29.985Z,31.51
2019-05-07T11:08:22.176Z,31.06
2019-05-07T11:11:12.794Z,30.97
2019-05-07T11:14:03.101Z,30.58
2019-05-07T11:17:06.011Z,32.17
2019-05-07T11:19:56.265Z,30.83
2019-05-07T11:22:46.731Z,30.09
2019-05-07T11:25:37.082Z,29.45
2019-05-07T11:28:27.688Z,30.15
2019-05-07T11:31:17.924Z,32.04
2019-05-07T11:34:08.564Z,32.57
2019-05-07T11:36:58.937Z,32.23
2019-05-07T11:39:49.473Z,29.09
2019-05-07T11:43:05.873Z,31.83
2019-05-07T11:46:15.889Z,30.03
2019-05-07T11:49:13.932Z,27.97
2019-05-07T11:52:14.913Z,28.70
2019-05-07T11:55:03.728Z,30.84
2019-05-07T11:57:54.480Z,30.59
2019-05-07T12:00:59.107Z,30.13
2019-05-07T12:03:51.925Z,28.92
2019-05-07T12:06:42.020Z,29.62
2019-05-07T12:09:33.324Z,29.18
2019-05-07T12:12:24.704Z,29.63
2019-05-07T12:15:15.103Z,33.11
2019-05-07T12:18:05.492Z,30.93
2019-05-07T12:20:55.719Z,30.93
2019-05-07T12:23:46.000Z,29.45
2019-05-07T12:26:37.787Z,31.25
2019-05-07T12:29:28.139Z,30.10
2019-05-07T12:32:32.264Z,30.10
2019-05-07T12:35:22.268Z,30.96
2019-05-07T12:38:12.931Z,30.69
2019-05-07T12:41:22.358Z,29.90
2019-05-07T12:44:13.197Z,29.90
2019-05-07T12:47:04.437Z,30.97
2019-05-07T12:49:54.943Z,30.36
2019-05-07T12:52:53.927Z,31.18
2019-05-07T12:55:54.551Z,29.86
2019-05-07T12:58:44.791Z,29.40
2019-05-07T13:01:55.011Z,31.32
2019-05-07T13:04:45.282Z,30.19
2019-05-07T13:07:55.243Z,32.66
2019-05-07T13:10:45.776Z,31.12
2019-05-07T13:13:37.434Z,30.35
2019-05-07T13:16:27.899Z,31.31
2019-05-07T13:19:18.185Z,30.25
2019-05-07T13:22:08.629Z,31.67
2019-05-07T13:24:59.073Z,34.49
2019-05-07T13:27:52.293Z,31.39
2019-05-07T13:30:43.867Z,30.35
2019-05-07T13:33:34.774Z,31.02
2019-05-07T13:36:25.692Z,30.56
2019-05-07T13:39:26.610Z,30.87
2019-05-07T13:42:36.064Z,31.20
2019-05-07T13:45:36.931Z,31.04
2019-05-07T13:48:27.123Z,30.08
2019-05-07T13:51:17.517Z,29.09
2019-05-07T13:54:08.016Z,30.24
2019-05-07T13:56:58.321Z,32.18
2019-05-07T13:59:48.636Z,32.28
2019-05-07T14:02:39.032Z,32.28
2019-05-07T14:05:29.385Z,30.84
2019-05-07T14:08:22.656Z,30.14
2019-05-07T14:11:12.906Z,32.91
2019-05-07T14:14:04.396Z,32.91
2019-05-07T14:16:54.909Z,34.15
2019-05-07T14:19:45.352Z,32.37
2019-05-07T14:22:35.832Z,32.37
2019-05-07T14:25:26.236Z,31.92
2019-05-07T14:28:16.519Z,29.96
2019-05-07T14:31:07.821Z,29.50
2019-05-07T14:34:05.427Z,30.31
2019-05-07T14:37:14.360Z,31.50
2019-05-07T14:40:04.941Z,31.50
2019-05-07T14:43:03.561Z,30.87
2019-05-07T14:45:53.847Z,30.82
2019-05-07T14:48:44.400Z,30.82
2019-05-07T14:51:34.612Z,31.39
2019-05-07T14:54:25.152Z,30.96
2019-05-07T14:57:15.695Z,31.90
2019-05-07T15:00:12.273Z,34.49
2019-05-07T15:03:02.112Z,33.79
2019-05-07T15:05:52.638Z,32.98
2019-05-07T15:08:43.053Z,33.38
2019-05-07T15:11:33.747Z,32.70
2019-05-07T15:14:24.545Z,32.70
2019-05-07T15:17:27.275Z,33.33
2019-05-07T15:20:17.432Z,33.39
2019-05-07T15:23:30.140Z,35.89
2019-05-07T15:26:22.029Z,33.30
2019-05-07T15:29:14.142Z,32.49
2019-05-07T15:32:12.460Z,33.57
2019-05-07T15:35:02.788Z,33.20
2019-05-07T15:37:53.462Z,34.06
2019-05-07T15:40:43.945Z,34.27
2019-05-07T15:43:34.244Z,34.29
2019-05-07T15:46:24.552Z,35.09
2019-05-07T15:49:17.056Z,34.19
2019-05-07T15:52:12.706Z,35.78
2019-05-07T15:55:03.181Z,36.38
2019-05-07T15:57:53.717Z,34.48
2019-05-07T16:00:44.135Z,35.31
2019-05-07T16:03:43.163Z,36.28
2019-05-07T16:06:36.087Z,37.75
2019-05-07T16:09:29.505Z,37.71
2019-05-07T16:12:22.705Z,36.56
2019-05-07T16:15:15.337Z,36.89
2019-05-07T16:18:08.641Z,36.23
2019-05-07T16:20:58.805Z,38.34
2019-05-07T16:23:49.335Z,38.84
2019-05-07T16:26:41.885Z,38.81
2019-05-07T16:29:35.344Z,42.31
2019-05-07T16:32:24.304Z,41.17
2019-05-07T16:35:16.289Z,39.95
2019-05-07T16:38:06.952Z,39.10
2019-05-07T16:40:57.303Z,40.45
2019-05-07T16:43:48.830Z,41.57
2019-05-07T16:46:39.356Z,37.99
2019-05-07T16:49:31.892Z,38.02
2019-05-07T16:52:23.500Z,40.08
2019-05-07T16:55:14.037Z,41.88
2019-05-07T16:58:12.367Z,41.03
2019-05-07T17:01:05.665Z,41.19
2019-05-07T17:03:58.401Z,41.45
2019-05-07T17:06:48.958Z,43.22
2019-05-07T17:09:39.317Z,43.88
2019-05-07T17:12:29.668Z,44.05
2019-05-07T17:15:20.323Z,43.54
2019-05-07T17:18:11.782Z,41.72
2019-05-07T17:21:02.336Z,41.24
2019-05-07T17:23:52.932Z,41.63
2019-05-07T17:26:43.172Z,44.38
2019-05-07T17:29:33.571Z,46.07
2019-05-07T17:32:23.870Z,46.83
2019-05-07T17:35:14.159Z,41.94
2019-05-07T17:38:09.085Z,46.35
2019-05-07T17:41:09.141Z,44.14
2019-05-07T17:43:48.126Z,45.65
2019-05-07T17:46:38.606Z,45.05
2019-05-07T17:49:32.361Z,45.00
2019-05-07T17:52:26.203Z,45.75
2019-05-07T17:55:19.449Z,47.04
2019-05-07T17:58:09.623Z,46.82
2019-05-07T18:01:04.844Z,47.22
2019-05-07T18:03:55.005Z,49.71
2019-05-07T18:06:45.205Z,50.73
2019-05-07T18:09:36.401Z,51.01
2019-05-07T18:12:26.793Z,49.60
2019-05-07T18:15:17.200Z,49.89
2019-05-07T18:18:09.239Z,47.85
2019-05-07T18:20:59.307Z,49.47
2019-05-07T18:23:51.616Z,50.81
2019-05-07T18:26:42.484Z,48.24
2019-05-07T18:29:33.010Z,50.27
2019-05-07T18:32:27.505Z,51.55
2019-05-07T18:35:17.811Z,51.72
2019-05-07T18:38:08.295Z,49.61
2019-05-07T18:40:58.786Z,51.61
2019-05-07T18:43:52.053Z,48.60
2019-05-07T18:46:41.654Z,46.04
2019-05-07T18:49:32.216Z,46.36
2019-05-07T18:52:23.084Z,46.28
2019-05-07T18:55:13.633Z,48.38
2019-05-07T18:58:04.035Z,48.09
2019-05-07T19:00:58.041Z,49.07
2019-05-07T19:03:48.630Z,50.85
2019-05-07T19:06:38.637Z,49.95
2019-05-07T19:09:29.061Z,51.96
2019-05-07T19:12:22.108Z,54.28
2019-05-07T19:15:12.450Z,52.91
2019-05-07T19:18:02.847Z,49.30
2019-05-07T19:20:53.154Z,48.56
2019-05-07T19:23:43.211Z,48.80
2019-05-07T19:26:33.687Z,50.16
2019-05-07T19:29:24.325Z,49.29
2019-05-07T19:32:14.965Z,49.22
2019-05-07T19:35:05.517Z,49.79
2019-05-07T19:37:55.938Z,50.48
2019-05-07T19:40:46.253Z,52.65
2019-05-07T19:43:36.599Z,51.14
2019-05-07T19:46:26.956Z,53.93
2019-05-07T19:49:17.176Z,52.72
2019-05-07T19:52:07.440Z,51.27
2019-05-07T19:55:01.579Z,52.03
2019-05-07T19:57:56.781Z,52.28
2019-05-07T20:00:47.294Z,53.05
2019-05-07T20:03:38.759Z,53.64
2019-05-07T20:06:29.424Z,54.80
2019-05-07T20:09:22.921Z,54.17
2019-05-07T20:12:13.007Z,54.69
2019-05-07T20:15:03.571Z,54.70
2019-05-07T20:17:54.080Z,52.25
2019-05-07T20:20:44.209Z,53.25
2019-05-07T20:23:34.917Z,51.56
2019-05-07T20:26:25.652Z,51.56
2019-05-07T20:29:17.038Z,51.42
2019-05-07T20:32:07.563Z,51.81
2019-05-07T20:34:58.040Z,54.11
2019-05-07T20:37:48.294Z,54.45
2019-05-07T20:40:39.386Z,55.23
2019-05-07T20:43:29.756Z,57.87
2019-05-07T20:46:20.285Z,57.20
2019-05-07T20:49:12.882Z,56.04
2019-05-07T20:52:02.580Z,59.27
2019-05-07T20:55:08.280Z,56.51
2019-05-07T20:57:58.813Z,55.43
2019-05-07T21:00:49.338Z,55.01
2019-05-07T21:03:39.658Z,59.61
2019-05-07T21:06:32.167Z,57.36
2019-05-07T21:09:22.325Z,59.95
2019-05-07T21:12:13.011Z,59.50
2019-05-07T21:15:04.386Z,60.87
2019-05-07T21:17:54.651Z,59.03
2019-05-07T21:20:44.792Z,63.58
2019-05-07T21:23:35.198Z,63.15
2019-05-07T21:26:25.736Z,56.23
2019-05-07T21:29:16.184Z,53.06
2019-05-07T21:32:06.552Z,53.95
2019-05-07T21:34:56.885Z,54.39
2019-05-07T21:37:47.447Z,53.29
2019-05-07T21:40:37.699Z,50.82
2019-05-07T21:43:29.202Z,51.24
2019-05-07T21:46:23.889Z,51.70
2019-05-07T21:49:15.375Z,54.05
2019-05-07T21:52:05.813Z,53.31
2019-05-07T21:55:02.522Z,52.70
2019-05-07T21:58:14.718Z,54.15
2019-05-07T22:01:12.468Z,53.87
2019-05-07T22:04:04.381Z,53.16
2019-05-07T22:06:55.048Z,52.31
2019-05-07T22:09:45.476Z,52.37
2019-05-07T22:12:35.673Z,53.11
2019-05-07T22:15:26.037Z,53.32
2019-05-07T22:18:16.464Z,54.14
2019-05-07T22:21:06.883Z,55.22
2019-05-07T22:23:57.245Z,55.90
2019-05-07T22:26:47.580Z,56.72
2019-05-07T22:29:37.871Z,56.24
2019-05-07T22:32:46.788Z,54.44
2019-05-07T22:35:39.823Z,54.17
2019-05-07T22:38:47.965Z,54.22
2019-05-07T22:41:39.521Z,55.15
2019-05-07T22:44:32.142Z,54.99
2019-05-07T22:47:23.065Z,54.57
2019-05-07T22:50:13.511Z,54.21
2019-05-07T22:53:03.778Z,54.28
2019-05-07T22:55:54.219Z,53.95
2019-05-07T22:58:49.248Z,52.35
2019-05-07T23:01:39.757Z,52.38
2019-05-07T23:04:32.368Z,52.60
2019-05-07T23:07:22.393Z,52.50
2019-05-07T23:10:12.965Z,52.57
2019-05-07T23:13:03.389Z,52.79
2019-05-07T23:15:53.884Z,54.09
2019-05-07T23:18:44.313Z,54.19
2019-05-07T23:21:34.750Z,54.63
2019-05-07T23:24:25.137Z,54.72
2019-05-07T23:27:15.512Z,55.19
2019-05-07T23:30:06.046Z,56.05
2019-05-07T23:32:56.349Z,56.63
2019-05-07T23:35:47.761Z,56.59
2019-05-07T23:38:38.247Z,56.15
2019-05-07T23:41:52.574Z,55.69
2019-05-07T23:44:43.216Z,54.96
2019-05-07T23:47:33.629Z,55.28
2019-05-07T23:50:24.022Z,54.47
2019-05-07T23:53:14.323Z,54.41
2019-05-07T23:56:04.722Z,54.71
2019-05-07T23:58:57.109Z,55.10
